createdAt,value
2022-08-29T00:01:38.189Z,977.64
2022-08-29T00:07:08.497Z,977.61
2022-08-29T00:12:40.160Z,977.57
2022-08-29T00:18:11.982Z,977.39
2022-08-29T00:23:43.595Z,977.47
2022-08-29T00:29:15.317Z,977.49
2022-08-29T00:34:47.245Z,977.68
2022-08-29T00:40:18.963Z,977.73
2022-08-29T00:45:50.783Z,977.56
2022-08-29T00:51:26.550Z,977.79
2022-08-29T00:56:58.393Z,977.84
2022-08-29T01:02:30.255Z,977.63
2022-08-29T01:08:01.801Z,977.53
2022-08-29T01:13:33.513Z,977.43
2022-08-29T01:19:05.214Z,977.6
2022-08-29T01:24:36.928Z,977.52
2022-08-29T01:30:08.648Z,977.52
2022-08-29T01:35:40.534Z,977.5
2022-08-29T01:41:12.121Z,977.6
2022-08-29T01:46:43.879Z,977.52
2022-08-29T01:52:19.965Z,977.7
2022-08-29T01:57:53.142Z,977.71
2022-08-29T02:03:23.654Z,977.44
2022-08-29T02:08:55.138Z,977.37
2022-08-29T02:14:26.863Z,977.49
2022-08-29T02:19:58.530Z,977.52
2022-08-29T02:25:30.274Z,977.64
2022-08-29T02:31:02.130Z,977.57
2022-08-29T02:36:33.945Z,977.37
2022-08-29T02:42:05.461Z,977.31
2022-08-29T02:47:37.546Z,977.29
2022-08-29T02:53:13.337Z,977.48
2022-08-29T02:58:44.993Z,977.61
2022-08-29T03:04:16.757Z,977.3
2022-08-29T03:09:48.459Z,977.32
2022-08-29T03:15:20.160Z,977.25
2022-08-29T03:20:51.890Z,977.29
2022-08-29T03:26:23.577Z,977.14
2022-08-29T03:31:55.371Z,977.19
2022-08-29T03:37:27.020Z,977.23
2022-08-29T03:42:58.778Z,977.47
2022-08-29T03:48:30.455Z,977.52
2022-08-29T03:54:06.615Z,977.49
2022-08-29T03:59:38.407Z,977.61
2022-08-29T04:05:10.140Z,977.7
2022-08-29T04:10:41.762Z,977.56
2022-08-29T04:16:13.720Z,977.57
2022-08-29T04:21:45.146Z,977.49
2022-08-29T04:27:19.001Z,977.57
2022-08-29T04:32:48.585Z,977.44
2022-08-29T04:38:20.451Z,977.55
2022-08-29T04:43:52.081Z,977.59
2022-08-29T04:49:23.826Z,977.33
2022-08-29T04:54:59.940Z,977.59
2022-08-29T05:00:31.489Z,977.5
2022-08-29T05:06:03.377Z,977.65
2022-08-29T05:11:35.142Z,977.8
2022-08-29T05:17:06.954Z,977.66
2022-08-29T05:22:38.582Z,977.82
2022-08-29T05:28:10.239Z,977.98
2022-08-29T05:33:42.038Z,978.12
2022-08-29T05:39:14.610Z,978.28
2022-08-29T05:44:45.805Z,978.2
2022-08-29T05:50:17.177Z,978.5
2022-08-29T05:55:53.281Z,978.57
2022-08-29T06:01:26.948Z,978.63
2022-08-29T06:06:56.777Z,979.19
2022-08-29T06:12:28.403Z,978.95
2022-08-29T06:18:00.197Z,979.24
2022-08-29T06:23:31.980Z,979.7
2022-08-29T06:29:03.672Z,979.79
2022-08-29T06:34:35.298Z,979.42
2022-08-29T06:40:08.765Z,979.23
2022-08-29T06:45:38.822Z,979.59
2022-08-29T06:51:10.586Z,979.66
2022-08-29T06:56:46.720Z,979.77
2022-08-29T07:02:18.530Z,979.92
2022-08-29T07:07:50.008Z,980.34
2022-08-29T07:13:21.767Z,980.42
2022-08-29T07:18:53.442Z,980.38
2022-08-29T07:24:25.749Z,980.89
2022-08-29T07:29:56.970Z,980.14
2022-08-29T07:35:31.418Z,980.2
2022-08-29T07:41:01.539Z,980.72
2022-08-29T07:46:32.553Z,979.78
2022-08-29T07:52:03.822Z,980.42
2022-08-29T07:57:41.925Z,980.97
2022-08-29T08:03:14.003Z,980.47
2022-08-29T08:08:45.343Z,980.5
2022-08-29T08:14:17.083Z,981.12
2022-08-29T08:19:48.865Z,981.5
2022-08-29T08:25:25.145Z,980.27
2022-08-29T08:30:52.435Z,981.01
2022-08-29T08:36:24.193Z,981.25
2022-08-29T08:41:55.718Z,980.63
2022-08-29T08:47:27.506Z,980.98
2022-08-29T08:52:59.156Z,981.1
2022-08-29T08:58:37.143Z,981.36
2022-08-29T09:04:09.022Z,980.87
2022-08-29T09:09:40.664Z,981.1
2022-08-29T09:15:14.506Z,981.37
2022-08-29T09:20:44.178Z,981.44
2022-08-29T09:26:15.962Z,981.27
2022-08-29T09:31:47.859Z,981.64
2022-08-29T09:37:19.337Z,981.46
2022-08-29T09:42:51.116Z,980.84
2022-08-29T09:48:22.798Z,981.03
2022-08-29T09:53:54.658Z,981.35
2022-08-29T09:59:30.585Z,981.64
2022-08-29T10:05:02.374Z,980.71
2022-08-29T10:10:33.989Z,981.38
2022-08-29T10:16:05.953Z,980.93
2022-08-29T10:21:37.559Z,981.05
2022-08-29T10:27:09.201Z,981.61
2022-08-29T10:32:40.969Z,981.15
2022-08-29T10:38:12.713Z,981.59
2022-08-29T10:43:44.398Z,981.3
2022-08-29T10:49:16.162Z,980.87
2022-08-29T10:54:47.873Z,980.81
2022-08-29T11:00:23.950Z,980.77
2022-08-29T11:05:55.709Z,980.6
2022-08-29T11:11:27.401Z,981.01
2022-08-29T11:17:03.992Z,981.1
2022-08-29T11:22:30.894Z,980.93
2022-08-29T11:28:02.554Z,981.01
2022-08-29T11:33:34.249Z,980.61
2022-08-29T11:39:05.999Z,980.67
2022-08-29T11:44:37.733Z,980.67
2022-08-29T11:50:09.415Z,980.56
2022-08-29T11:55:41.338Z,980.37
2022-08-29T12:01:19.759Z,980.28
2022-08-29T12:06:49.067Z,980.45
2022-08-29T12:12:20.670Z,980.41
2022-08-29T12:18:04.394Z,980.03
2022-08-29T12:23:24.198Z,979.9
2022-08-29T12:28:55.951Z,980.41
2022-08-29T12:34:27.637Z,979.84
2022-08-29T12:39:59.462Z,979.51
2022-08-29T12:45:31.022Z,979.5
2022-08-29T12:51:02.772Z,979.28
2022-08-29T12:56:34.578Z,979.69
2022-08-29T13:02:10.754Z,979.32
2022-08-29T13:07:42.358Z,979.23
2022-08-29T13:13:14.083Z,979.28
2022-08-29T13:19:12.039Z,979.22
2022-08-29T13:24:17.490Z,978.58
2022-08-29T13:29:49.250Z,978.64
2022-08-29T13:35:21.536Z,978.63
2022-08-29T13:40:52.760Z,978.45
2022-08-29T13:46:24.601Z,978.39
2022-08-29T13:51:56.231Z,978.22
2022-08-29T13:57:27.829Z,977.93
2022-08-29T14:03:06.685Z,978.05
2022-08-29T14:08:43.381Z,978.03
2022-08-29T14:14:09.396Z,978.28
2022-08-29T14:19:41.344Z,977.96
2022-08-29T14:25:12.965Z,978.18
2022-08-29T14:30:52.937Z,977.8
2022-08-29T14:36:17.407Z,977.75
2022-08-29T14:41:48.118Z,977.06
2022-08-29T14:47:19.747Z,977.24
2022-08-29T14:52:51.566Z,977.6
2022-08-29T14:58:23.218Z,977.3
2022-08-29T15:04:01.326Z,977.68
2022-08-29T15:09:33.054Z,977.5
2022-08-29T15:15:04.751Z,977.85
2022-08-29T15:20:46.242Z,976.7
2022-08-29T15:26:08.263Z,977.05
2022-08-29T15:31:40.132Z,976.44
2022-08-29T15:37:11.658Z,976.43
2022-08-29T15:42:43.437Z,976.92
2022-08-29T15:48:15.743Z,976.44
2022-08-29T15:53:46.878Z,975.79
2022-08-29T15:59:18.570Z,976.11
2022-08-29T16:04:57.944Z,976.43
2022-08-29T16:10:28.406Z,975.97
2022-08-29T16:16:00.698Z,976.23
2022-08-29T16:21:31.852Z,976.1
2022-08-29T16:27:03.658Z,976.24
2022-08-29T16:32:35.348Z,976.08
2022-08-29T16:38:07.129Z,975.56
2022-08-29T16:43:39.000Z,975.92
2022-08-29T16:49:10.549Z,975.72
2022-08-29T16:54:42.322Z,976.12
2022-08-29T17:00:14.050Z,975.62
2022-08-29T17:05:50.102Z,975.57
2022-08-29T17:11:21.813Z,975.76
2022-08-29T17:16:53.933Z,975.51
2022-08-29T17:22:25.344Z,975.62
2022-08-29T17:28:19.138Z,975.7
2022-08-29T17:33:28.902Z,975.28
2022-08-29T17:39:01.590Z,975.28
2022-08-29T17:44:32.126Z,975.51
2022-08-29T17:50:03.934Z,975.61
2022-08-29T17:55:35.662Z,975.63
2022-08-29T18:01:08.305Z,975.51
2022-08-29T18:06:43.794Z,975.33
2022-08-29T18:12:15.173Z,975.23
2022-08-29T18:17:46.974Z,975.04
2022-08-29T18:23:18.679Z,975.21
2022-08-29T18:28:52.563Z,975.34
2022-08-29T18:34:22.118Z,975.48
2022-08-29T18:39:53.797Z,975.66
2022-08-29T18:45:25.576Z,975.58
2022-08-29T18:50:57.314Z,975.57
2022-08-29T18:56:29.717Z,975.56
2022-08-29T19:02:01.117Z,975.7
2022-08-29T19:07:36.915Z,975.73
2022-08-29T19:13:08.506Z,975.86
2022-08-29T19:18:40.188Z,975.89
2022-08-29T19:24:11.987Z,975.79
2022-08-29T19:29:49.630Z,975.89
2022-08-29T19:35:15.434Z,975.5
2022-08-29T19:40:47.353Z,975.8
2022-08-29T19:46:19.248Z,975.78
2022-08-29T19:51:51.546Z,975.99
2022-08-29T19:57:23.414Z,976.3
2022-08-29T20:02:54.002Z,976.57
2022-08-29T20:08:32.162Z,976.58
2022-08-29T20:14:04.018Z,976.78
2022-08-29T20:19:35.537Z,976.94
2022-08-29T20:25:07.261Z,976.94
2022-08-29T20:30:39.070Z,976.91
2022-08-29T20:36:10.840Z,977.08
2022-08-29T20:41:42.480Z,977.2
2022-08-29T20:47:14.265Z,977.2
2022-08-29T20:52:45.939Z,977.33
2022-08-29T20:58:17.642Z,977.4
2022-08-29T21:03:52.929Z,977.57
2022-08-29T21:09:25.445Z,977.76
2022-08-29T21:14:57.221Z,977.82
2022-08-29T21:20:28.850Z,978.02
2022-08-29T21:26:00.686Z,978.23
2022-08-29T21:31:32.663Z,978.3
2022-08-29T21:37:04.601Z,978.0
2022-08-29T21:42:35.929Z,978.07
2022-08-29T21:48:07.586Z,977.99
2022-08-29T21:53:42.385Z,977.7
2022-08-29T21:59:11.069Z,977.94
2022-08-29T22:04:42.770Z,977.8
2022-08-29T22:10:18.881Z,977.61
2022-08-29T22:15:50.808Z,977.6
2022-08-29T22:21:22.338Z,977.54
2022-08-29T22:26:54.019Z,977.44
2022-08-29T22:32:36.435Z,977.53
2022-08-29T22:37:57.576Z,977.53
2022-08-29T22:43:29.278Z,977.54
2022-08-29T22:49:01.134Z,977.72
2022-08-29T22:54:34.240Z,977.83
2022-08-29T23:00:04.503Z,977.91
2022-08-29T23:05:36.409Z,977.99
2022-08-29T23:11:12.430Z,977.98
2022-08-29T23:16:46.989Z,977.87
2022-08-29T23:22:16.061Z,977.73
2022-08-29T23:27:47.559Z,977.71
2022-08-29T23:33:19.205Z,977.85
2022-08-29T23:38:55.741Z,977.96
2022-08-29T23:44:23.141Z,978.16
2022-08-29T23:49:54.461Z,977.86
2022-08-29T23:55:26.742Z,977.76
